Time;durP1;ratioP1;P1;durP2;ratioP2;P2;SDS_P1;SDS_P2;PMS_P1;PMS_P2;Temp;Humidity;BMP_temperature;BMP_pressure;BME280_temperature;BME280_humidity;BME280_pressure;Samples;Min_cycle;Max_cycle;Signal;HPM_P1;HPM_P2
2023/04/23 00:01:27;;;;;;;;;;;7.60;99.90;;;;;;4976050;28;19925;-88
2023/04/23 00:03:55;;;;;;;;;;;7.70;99.90;;;;;;5015715;28;19929;-91
2023/04/23 00:06:31;;;;;;;;;;;8.00;99.90;;;;;;4997823;28;19933;-93
2023/04/23 00:09:39;;;;;;;;;;;;;;;;;;;;;
2023/04/23 00:12:24;;;;;;;;;;;;;;;;;;;;;
2023/04/23 00:15:21;;;;;;;;;;;7.90;99.90;;;;;;5016477;28;20257;-94
2023/04/23 00:18:34;;;;;;;;;;;;;;;;;;;;;
2023/04/23 00:24:38;;;;;;;;;;;;;;;;;;;;;
2023/04/23 00:30:23;;;;;;;;;;;;;;;;;;;;;
2023/04/23 00:33:07;;;;;;;;;;;9.20;99.90;;;;;;4998342;28;19976;-93
2023/04/23 00:36:30;;;;;;;;;;;;;;;;;;;;;
2023/04/23 00:46:32;;;;;;;;;;;;;;;;;;;;;
2023/04/23 00:49:57;;;;;;;;;;;;;;;;;;;;;
2023/04/23 00:53:03;;;;;;;;;;;7.70;99.90;;;;;;4898256;29;20391;-94
2023/04/23 01:06:07;;;;;;;;;;;;;;;;;;;;;
2023/04/23 01:32:32;;;;;;;;;;;;;;;;;;;;;
2023/04/23 01:35:34;;;;;;;;;;;;;;;;;;;;;
2023/04/23 01:38:47;;;;;;;;;;;;;;;;;;;;;
2023/04/23 01:55:25;;;;;;;;;;;;;;;;;;;;;
2023/04/23 01:58:20;;;;;;;;;;;;;;;;;;;;;
2023/04/23 02:05:04;;;;;;;;;;;;;;;;;;;;;
2023/04/23 02:35:12;;;;;;;;;;;;;;;;;;;;;
2023/04/23 02:45:18;;;;;;;;;;;5.10;99.90;;;;;;5120116;27;2132662;-93
2023/04/23 02:47:43;;;;;;;;;;;6.50;99.90;;;;;;5126745;27;19923;-93
2023/04/23 02:50:09;;;;;;;;;;;6.50;99.90;;;;;;5144381;27;20453;-95
2023/04/23 02:52:35;;;;;;;;;;;6.50;99.90;;;;;;5121081;27;19985;-94
2023/04/23 02:55:01;;;;;;;;;;;6.50;99.90;;;;;;5142402;27;20349;-94
2023/04/23 02:57:27;;;;;;;;;;;6.40;99.90;;;;;;5145187;27;19923;-94
2023/04/23 02:59:53;;;;;;;;;;;6.40;99.90;;;;;;5139966;27;19923;-94
2023/04/23 03:02:18;;;;;;;;;;;6.40;99.90;;;;;;5138339;27;20233;-95
2023/04/23 03:04:44;;;;;;;;;;;6.40;99.90;;;;;;5170147;27;19923;-94
2023/04/23 03:07:12;;;;;;;;;;;6.40;99.90;;;;;;5118501;27;19942;-94
2023/04/23 03:09:38;;;;;;;;;;;6.40;99.90;;;;;;5137083;27;19930;-93
2023/04/23 03:12:03;;;;;;;;;;;6.50;99.90;;;;;;5142480;27;19919;-93
2023/04/23 03:14:29;;;;;;;;;;;6.60;99.90;;;;;;5146093;27;19979;-94
2023/04/23 03:16:55;;;;;;;;;;;6.50;99.90;;;;;;5146114;27;19982;-95
2023/04/23 03:19:20;;;;;;;;;;;6.60;99.90;;;;;;5153938;27;19930;-95
2023/04/23 03:21:46;;;;;;;;;;;6.70;99.90;;;;;;5140700;27;20012;-94
2023/04/23 03:24:12;;;;;;;;;;;6.70;99.90;;;;;;5145969;27;19949;-94
2023/04/23 03:26:38;;;;;;;;;;;6.70;99.90;;;;;;5145887;27;19923;-95
2023/04/23 03:29:05;;;;;;;;;;;6.80;99.90;;;;;;5131617;27;19931;-95
2023/04/23 03:31:30;;;;;;;;;;;6.80;99.90;;;;;;5139211;27;19923;-93
2023/04/23 03:33:56;;;;;;;;;;;6.70;99.90;;;;;;5127007;27;19986;-94
2023/04/23 03:36:21;;;;;;;;;;;8.30;99.90;;;;;;5146946;27;19923;-94
2023/04/23 03:38:47;;;;;;;;;;;6.80;99.90;;;;;;5124521;27;19968;-93
2023/04/23 03:41:13;;;;;;;;;;;6.90;99.90;;;;;;5126472;27;19923;-95
2023/04/23 03:43:38;;;;;;;;;;;6.90;99.90;;;;;;5144562;27;19923;-93
2023/04/23 03:46:04;;;;;;;;;;;6.90;99.90;;;;;;5129690;27;19923;-94
2023/04/23 03:48:30;;;;;;;;;;;6.90;99.90;;;;;;5147785;27;20352;-92
2023/04/23 03:50:56;;;;;;;;;;;6.90;99.90;;;;;;5147070;27;20033;-94
2023/04/23 03:53:22;;;;;;;;;;;6.90;99.90;;;;;;5120314;27;19990;-94
2023/04/23 03:55:47;;;;;;;;;;;6.90;99.90;;;;;;5147866;27;19924;-93
2023/04/23 03:58:13;;;;;;;;;;;6.90;99.90;;;;;;5120159;27;19949;-95
2023/04/23 04:00:39;;;;;;;;;;;6.90;99.90;;;;;;5113847;27;19934;-93
2023/04/23 04:03:07;;;;;;;;;;;7.00;99.90;;;;;;5114612;27;19951;-95
2023/04/23 04:05:32;;;;;;;;;;;7.00;99.90;;;;;;5130056;27;19938;-94
2023/04/23 04:07:58;;;;;;;;;;;7.00;99.90;;;;;;5121778;27;19923;-94
2023/04/23 04:10:24;;;;;;;;;;;7.10;99.90;;;;;;5115467;27;19923;-96
2023/04/23 04:12:49;;;;;;;;;;;7.00;99.90;;;;;;5147069;27;19985;-93
2023/04/23 04:15:16;;;;;;;;;;;7.10;99.90;;;;;;5143802;27;19923;-93
2023/04/23 04:17:44;;;;;;;;;;;7.10;99.90;;;;;;5145446;27;19930;-94
2023/04/23 04:20:10;;;;;;;;;;;7.10;99.90;;;;;;5141606;27;19927;-93
2023/04/23 04:22:36;;;;;;;;;;;7.10;99.90;;;;;;5116889;27;20013;-94
2023/04/23 04:25:02;;;;;;;;;;;7.10;99.90;;;;;;5130343;27;19969;-93
2023/04/23 04:27:27;;;;;;;;;;;7.10;99.90;;;;;;5116762;27;19924;-93
2023/04/23 04:29:53;;;;;;;;;;;7.10;99.90;;;;;;5152639;27;19945;-94
2023/04/23 04:32:18;;;;;;;;;;;7.10;99.90;;;;;;5142589;27;19934;-95
2023/04/23 04:34:44;;;;;;;;;;;7.10;99.90;;;;;;5132150;27;19931;-93
2023/04/23 04:37:10;;;;;;;;;;;7.10;99.90;;;;;;5124991;27;19927;-93
2023/04/23 04:39:36;;;;;;;;;;;7.10;99.90;;;;;;5133522;27;19923;-93
2023/04/23 04:42:02;;;;;;;;;;;7.10;99.90;;;;;;5104602;27;19919;-93
2023/04/23 04:44:29;;;;;;;;;;;7.10;99.90;;;;;;5168798;27;19907;-92
2023/04/23 04:46:55;;;;;;;;;;;6.70;99.90;;;;;;5140444;27;19924;-95
2023/04/23 04:49:21;;;;;;;;;;;7.00;99.90;;;;;;5124441;27;19952;-94
2023/04/23 04:51:46;;;;;;;;;;;7.00;99.90;;;;;;5154901;27;19923;-94
2023/04/23 04:54:12;;;;;;;;;;;7.00;99.90;;;;;;5135009;27;19923;-93
2023/04/23 04:56:38;;;;;;;;;;;6.90;99.90;;;;;;5122828;27;19923;-95
2023/04/23 04:59:04;;;;;;;;;;;7.00;99.90;;;;;;5136314;27;19945;-93
2023/04/23 05:01:30;;;;;;;;;;;7.00;99.90;;;;;;5135100;27;19927;-92
2023/04/23 05:03:55;;;;;;;;;;;7.00;99.90;;;;;;5129627;27;19923;-94
2023/04/23 05:06:21;;;;;;;;;;;7.00;99.90;;;;;;5122076;27;19924;-94
2023/04/23 05:08:47;;;;;;;;;;;7.00;99.90;;;;;;5125812;27;19923;-92
2023/04/23 05:11:16;;;;;;;;;;;7.00;99.90;;;;;;5124865;27;19924;-93
2023/04/23 05:13:43;;;;;;;;;;;7.00;99.90;;;;;;5127340;27;19923;-94
2023/04/23 05:16:09;;;;;;;;;;;7.10;99.90;;;;;;5127107;27;19924;-93
2023/04/23 05:18:35;;;;;;;;;;;7.00;99.90;;;;;;5109106;27;19918;-92
2023/04/23 05:21:01;;;;;;;;;;;7.10;99.90;;;;;;5139836;27;19930;-93
2023/04/23 05:23:26;;;;;;;;;;;7.10;99.90;;;;;;5133740;27;19959;-94
2023/04/23 05:25:54;;;;;;;;;;;7.10;99.90;;;;;;5118338;27;19931;-93
2023/04/23 05:28:20;;;;;;;;;;;7.10;99.90;;;;;;5123072;27;20006;-94
2023/04/23 05:30:46;;;;;;;;;;;7.10;99.90;;;;;;5111548;27;19924;-94
2023/04/23 05:33:11;;;;;;;;;;;7.20;99.90;;;;;;5121682;27;19923;-94
2023/04/23 05:35:37;;;;;;;;;;;7.20;99.90;;;;;;5134339;27;19922;-93
2023/04/23 05:38:03;;;;;;;;;;;7.20;99.90;;;;;;5138850;27;19986;-93
2023/04/23 05:40:29;;;;;;;;;;;7.20;99.90;;;;;;5127430;27;19929;-93
2023/04/23 05:42:58;;;;;;;;;;;7.20;99.90;;;;;;5107876;27;19919;-93
2023/04/23 05:45:24;;;;;;;;;;;7.20;99.90;;;;;;5121679;27;19983;-93
2023/04/23 05:47:50;;;;;;;;;;;7.20;99.90;;;;;;5127915;27;19949;-94
2023/04/23 05:50:16;;;;;;;;;;;7.30;99.90;;;;;;5131433;27;19982;-93
2023/04/23 05:52:42;;;;;;;;;;;7.40;99.90;;;;;;5136761;27;19934;-92
2023/04/23 05:55:17;;;;;;;;;;;7.40;99.90;;;;;;5121455;27;19949;-92
2023/04/23 05:57:43;;;;;;;;;;;7.50;99.90;;;;;;5134527;27;19945;-94
2023/04/23 06:00:08;;;;;;;;;;;7.60;99.90;;;;;;5121829;27;19923;-93
2023/04/23 06:02:34;;;;;;;;;;;7.60;99.90;;;;;;5137478;27;19969;-93
2023/04/23 06:05:00;;;;;;;;;;;7.70;99.90;;;;;;5112926;27;19927;-94
2023/04/23 06:07:26;;;;;;;;;;;7.80;99.90;;;;;;5119322;27;19927;-93
2023/04/23 06:09:51;;;;;;;;;;;7.80;99.90;;;;;;5140446;27;19935;-94
2023/04/23 06:12:17;;;;;;;;;;;7.90;99.90;;;;;;5102797;27;19924;-93
2023/04/23 06:14:43;;;;;;;;;;;8.00;99.90;;;;;;5127727;27;20041;-92
2023/04/23 06:17:08;;;;;;;;;;;8.00;99.90;;;;;;5131121;27;19919;-94
2023/04/23 06:19:34;;;;;;;;;;;8.10;99.90;;;;;;5128820;27;19935;-93
2023/04/23 06:21:59;;;;;;;;;;;8.10;99.90;;;;;;5108759;27;19932;-93
2023/04/23 06:24:25;;;;;;;;;;;8.30;99.90;;;;;;5130666;27;19923;-94
2023/04/23 06:26:51;;;;;;;;;;;8.40;99.90;;;;;;5126018;27;19931;-95
2023/04/23 06:29:16;;;;;;;;;;;8.70;99.90;;;;;;5134806;27;19923;-95
2023/04/23 06:31:42;;;;;;;;;;;8.80;99.90;;;;;;5144148;27;19930;-93
2023/04/23 06:34:07;;;;;;;;;;;9.00;99.90;;;;;;5105930;28;19944;-94
2023/04/23 06:36:34;;;;;;;;;;;9.10;99.90;;;;;;5141281;27;19924;-93
2023/04/23 06:38:59;;;;;;;;;;;9.20;99.90;;;;;;5115620;27;19927;-93
2023/04/23 06:41:25;;;;;;;;;;;9.20;99.90;;;;;;5118899;28;19937;-93
2023/04/23 06:43:50;;;;;;;;;;;9.30;99.90;;;;;;5143121;27;19924;-94
2023/04/23 06:46:16;;;;;;;;;;;9.40;99.90;;;;;;5130195;27;19923;-93
2023/04/23 06:48:42;;;;;;;;;;;9.50;99.90;;;;;;5128947;28;19924;-93
2023/04/23 06:51:08;;;;;;;;;;;9.70;99.90;;;;;;5124215;27;19953;-93
2023/04/23 06:53:33;;;;;;;;;;;9.70;99.90;;;;;;5106972;27;19923;-95
2023/04/23 06:55:59;;;;;;;;;;;9.70;99.90;;;;;;5128571;27;20378;-94
2023/04/23 06:58:30;;;;;;;;;;;9.60;99.90;;;;;;5141963;27;19923;-94
2023/04/23 07:00:59;;;;;;;;;;;9.70;99.90;;;;;;5132981;27;19923;-94
2023/04/23 07:03:26;;;;;;;;;;;9.70;99.90;;;;;;5146327;27;19962;-93
2023/04/23 07:05:52;;;;;;;;;;;9.80;99.90;;;;;;5120690;28;19934;-93
2023/04/23 07:08:18;;;;;;;;;;;9.80;99.90;;;;;;5125378;27;19923;-94
2023/04/23 07:10:43;;;;;;;;;;;9.90;99.90;;;;;;5135732;27;19923;-93
2023/04/23 07:13:09;;;;;;;;;;;9.90;99.90;;;;;;5124123;28;20290;-94
2023/04/23 07:15:35;;;;;;;;;;;10.00;99.90;;;;;;5141371;27;19924;-94
2023/04/23 07:18:00;;;;;;;;;;;10.00;99.90;;;;;;5109238;28;19927;-94
2023/04/23 07:20:26;;;;;;;;;;;10.20;99.90;;;;;;5140191;27;19947;-93
2023/04/23 07:22:51;;;;;;;;;;;10.30;99.90;;;;;;5119839;27;19923;-93
2023/04/23 07:25:17;;;;;;;;;;;10.40;99.90;;;;;;5129341;27;20046;-92
2023/04/23 07:27:43;;;;;;;;;;;10.50;99.90;;;;;;5127878;27;19923;-93
2023/04/23 07:30:09;;;;;;;;;;;10.60;99.90;;;;;;5133716;27;19923;-94
2023/04/23 07:32:34;;;;;;;;;;;10.70;99.90;;;;;;5130684;27;19930;-92
2023/04/23 07:35:00;;;;;;;;;;;10.80;99.90;;;;;;5124546;27;19948;-93
2023/04/23 07:37:25;;;;;;;;;;;10.80;99.90;;;;;;5137438;27;19928;-95
2023/04/23 07:39:52;;;;;;;;;;;10.90;99.90;;;;;;5114980;27;19923;-93
2023/04/23 07:42:18;;;;;;;;;;;10.90;99.90;;;;;;5131506;27;19990;-93
2023/04/23 07:44:43;;;;;;;;;;;11.00;99.90;;;;;;5138114;27;19963;-93
2023/04/23 07:47:10;;;;;;;;;;;11.00;99.90;;;;;;5111979;27;19928;-94
2023/04/23 07:49:35;;;;;;;;;;;11.10;99.90;;;;;;5127758;27;19927;-92
2023/04/23 07:52:01;;;;;;;;;;;11.20;99.90;;;;;;5130731;27;19946;-93
2023/04/23 07:54:26;;;;;;;;;;;11.30;99.90;;;;;;5132360;27;19930;-94
2023/04/23 07:56:52;;;;;;;;;;;11.30;99.90;;;;;;5124706;27;19930;-92
2023/04/23 07:59:21;;;;;;;;;;;11.40;99.90;;;;;;5125355;27;19960;-92
2023/04/23 08:01:47;;;;;;;;;;;11.50;99.90;;;;;;5107148;28;20014;-93
2023/04/23 08:04:12;;;;;;;;;;;11.60;99.90;;;;;;5113080;27;19928;-93
2023/04/23 08:06:38;;;;;;;;;;;11.60;99.90;;;;;;5118926;27;19923;-93
2023/04/23 08:09:05;;;;;;;;;;;11.60;99.90;;;;;;5095432;27;19919;-91
2023/04/23 08:11:33;;;;;;;;;;;11.60;99.90;;;;;;5096128;27;19930;-93
2023/04/23 08:14:00;;;;;;;;;;;11.50;99.90;;;;;;5113895;28;20268;-92
2023/04/23 08:16:26;;;;;;;;;;;11.60;99.90;;;;;;5110653;27;19924;-92
2023/04/23 08:18:52;;;;;;;;;;;11.70;99.90;;;;;;5104629;27;20366;-92
2023/04/23 08:21:17;;;;;;;;;;;11.70;99.90;;;;;;5108789;28;19924;-92
2023/04/23 08:23:43;;;;;;;;;;;11.80;99.90;;;;;;5118233;27;19923;-92
2023/04/23 08:26:09;;;;;;;;;;;11.90;99.90;;;;;;5113944;27;19994;-92
2023/04/23 08:28:34;;;;;;;;;;;12.00;99.90;;;;;;5128693;27;19938;-92
2023/04/23 08:31:00;;;;;;;;;;;12.10;99.90;;;;;;5092917;27;19963;-91
2023/04/23 08:33:26;;;;;;;;;;;12.20;99.90;;;;;;5099521;28;19939;-92
2023/04/23 08:35:52;;;;;;;;;;;12.20;99.90;;;;;;5114265;27;19931;-92
2023/04/23 08:38:17;;;;;;;;;;;12.30;99.90;;;;;;5111824;27;19927;-93
2023/04/23 08:40:44;;;;;;;;;;;12.40;99.90;;;;;;5109246;27;19923;-91
2023/04/23 08:43:14;;;;;;;;;;;12.50;99.90;;;;;;5094423;27;20002;-91
2023/04/23 08:45:44;;;;;;;;;;;12.60;99.90;;;;;;5111264;27;19929;-92
2023/04/23 08:48:10;;;;;;;;;;;12.70;99.90;;;;;;5109182;27;20325;-91
2023/04/23 08:50:36;;;;;;;;;;;12.70;99.90;;;;;;5111438;27;19929;-93
2023/04/23 08:53:03;;;;;;;;;;;12.70;99.90;;;;;;5118703;27;19931;-92
2023/04/23 08:55:28;;;;;;;;;;;12.80;99.90;;;;;;5107678;28;20299;-91
2023/04/23 08:57:54;;;;;;;;;;;12.90;99.90;;;;;;5101932;28;19924;-91
2023/04/23 09:00:21;;;;;;;;;;;13.00;99.90;;;;;;5104393;27;19923;-93
2023/04/23 09:02:49;;;;;;;;;;;13.10;99.90;;;;;;5098404;27;19923;-92
2023/04/23 09:05:14;;;;;;;;;;;13.10;99.90;;;;;;5116311;27;20479;-92
2023/04/23 09:07:41;;;;;;;;;;;13.20;99.90;;;;;;5094346;27;19928;-92
2023/04/23 09:10:07;;;;;;;;;;;13.30;99.90;;;;;;5125828;27;19927;-92
2023/04/23 09:12:36;;;;;;;;;;;13.40;99.90;;;;;;5126562;27;20362;-93
2023/04/23 09:15:12;;;;;;;;;;;13.40;99.90;;;;;;5087743;27;19924;-91
2023/04/23 09:17:39;;;;;;;;;;;13.60;99.90;;;;;;5106780;27;19930;-92
2023/04/23 09:20:05;;;;;;;;;;;13.60;99.90;;;;;;5124974;27;19976;-91
2023/04/23 09:22:42;;;;;;;;;;;13.60;99.90;;;;;;5092135;27;20400;-91
2023/04/23 09:25:08;;;;;;;;;;;13.60;99.90;;;;;;5099996;28;19970;-91
2023/04/23 09:27:35;;;;;;;;;;;13.50;99.90;;;;;;5103659;27;19924;-91
2023/04/23 09:30:03;;;;;;;;;;;13.70;99.90;;;;;;5110390;27;19931;-92
2023/04/23 09:32:30;;;;;;;;;;;13.60;99.90;;;;;;5113605;27;19932;-92
2023/04/23 09:34:56;;;;;;;;;;;13.60;99.90;;;;;;5114215;27;19984;-91
2023/04/23 09:37:24;;;;;;;;;;;13.60;99.90;;;;;;5101322;28;19979;-92
2023/04/23 09:39:52;;;;;;;;;;;13.70;99.90;;;;;;5095739;27;19934;-91
2023/04/23 09:42:22;;;;;;;;;;;13.90;99.90;;;;;;5090315;28;19943;-91
2023/04/23 09:44:55;;;;;;;;;;;14.10;99.90;;;;;;5121146;27;19929;-91
2023/04/23 09:47:20;;;;;;;;;;;14.30;99.90;;;;;;5112901;27;19924;-92
2023/04/23 09:49:47;;;;;;;;;;;14.60;99.90;;;;;;5103261;27;19934;-91
2023/04/23 09:52:12;;;;;;;;;;;14.70;99.90;;;;;;5115838;28;19923;-91
2023/04/23 09:54:38;;;;;;;;;;;14.70;99.90;;;;;;5105181;27;20006;-92
2023/04/23 09:57:05;;;;;;;;;;;14.90;99.90;;;;;;5124692;27;19930;-91
2023/04/23 09:59:31;;;;;;;;;;;15.00;99.90;;;;;;5118248;27;20404;-92
2023/04/23 10:02:00;;;;;;;;;;;15.10;99.90;;;;;;5097774;28;19963;-93
2023/04/23 10:04:26;;;;;;;;;;;15.30;99.90;;;;;;5103102;28;19935;-93
2023/04/23 10:06:59;;;;;;;;;;;15.50;99.90;;;;;;5101485;27;19923;-91
2023/04/23 10:09:26;;;;;;;;;;;15.60;99.90;;;;;;5115596;27;19973;-92
2023/04/23 10:11:53;;;;;;;;;;;15.60;99.90;;;;;;5098601;27;19939;-92
2023/04/23 10:14:19;;;;;;;;;;;15.40;99.90;;;;;;5110217;27;19931;-91
2023/04/23 10:16:48;;;;;;;;;;;15.30;99.90;;;;;;5116805;27;19923;-92
2023/04/23 10:19:16;;;;;;;;;;;15.30;99.90;;;;;;5091863;27;19972;-90
2023/04/23 10:21:43;;;;;;;;;;;15.30;99.90;;;;;;5113972;27;19980;-90
2023/04/23 10:24:09;;;;;;;;;;;15.50;99.90;;;;;;5121354;27;19935;-94
2023/04/23 10:26:39;;;;;;;;;;;15.80;99.90;;;;;;5122323;27;19932;-92
2023/04/23 10:29:08;;;;;;;;;;;15.80;99.90;;;;;;5113118;28;19923;-93
2023/04/23 10:31:35;;;;;;;;;;;16.00;99.90;;;;;;5102607;27;19924;-96
2023/04/23 10:34:04;;;;;;;;;;;16.00;99.90;;;;;;5124758;27;19931;-92
2023/04/23 10:36:32;;;;;;;;;;;16.10;99.90;;;;;;5113278;27;19971;-91
2023/04/23 10:39:02;;;;;;;;;;;16.20;99.90;;;;;;5122905;28;19927;-91
2023/04/23 10:41:34;;;;;;;;;;;16.20;99.90;;;;;;5102299;27;19935;-91
2023/04/23 10:44:00;;;;;;;;;;;16.40;99.90;;;;;;5106220;28;20014;-95
2023/04/23 10:46:32;;;;;;;;;;;16.50;99.90;;;;;;5098492;28;19947;-93
2023/04/23 10:49:09;;;;;;;;;;;16.60;99.90;;;;;;5104846;28;19924;-92
2023/04/23 10:51:35;;;;;;;;;;;16.60;99.90;;;;;;5117804;28;19931;-94
2023/04/23 10:54:04;;;;;;;;;;;16.50;99.90;;;;;;5105555;28;19923;-94
2023/04/23 10:56:30;;;;;;;;;;;16.50;99.90;;;;;;5100547;28;20010;-95
2023/04/23 10:58:57;;;;;;;;;;;16.40;99.90;;;;;;5110718;28;19923;-94
2023/04/23 11:01:23;;;;;;;;;;;16.40;99.90;;;;;;5109792;28;20375;-92
2023/04/23 11:03:50;;;;;;;;;;;16.30;99.90;;;;;;5108146;28;20035;-94
2023/04/23 11:06:42;;;;;;;;;;;16.30;99.90;;;;;;5136189;27;20239;-94
2023/04/23 11:09:26;;;;;;;;;;;16.20;99.90;;;;;;5109469;27;19923;-93
2023/04/23 11:11:53;;;;;;;;;;;16.20;99.90;;;;;;5126858;27;19924;-92
2023/04/23 11:14:19;;;;;;;;;;;16.10;99.90;;;;;;5118832;28;20006;-93
2023/04/23 11:16:44;;;;;;;;;;;16.00;99.90;;;;;;5085143;27;19924;-92
2023/04/23 11:19:14;;;;;;;;;;;16.00;99.90;;;;;;5124476;27;19971;-93
2023/04/23 11:21:58;;;;;;;;;;;16.20;99.90;;;;;;5114499;27;19974;-90
2023/04/23 11:24:44;;;;;;;;;;;16.40;99.90;;;;;;5107883;27;20018;-92
2023/04/23 11:27:12;;;;;;;;;;;16.70;99.90;;;;;;5127800;27;19927;-92
2023/04/23 11:29:39;;;;;;;;;;;17.00;99.90;;;;;;5119420;27;19931;-92
2023/04/23 11:32:09;;;;;;;;;;;17.30;99.90;;;;;;5102795;28;20339;-93
2023/04/23 11:34:35;;;;;;;;;;;17.50;99.90;;;;;;5091840;27;19923;-94
2023/04/23 11:37:01;;;;;;;;;;;17.50;99.90;;;;;;5116669;27;19927;-92
2023/04/23 11:39:27;;;;;;;;;;;17.40;99.90;;;;;;5107387;27;19966;-93
2023/04/23 11:41:53;;;;;;;;;;;17.30;99.90;;;;;;5095040;27;19923;-92
2023/04/23 11:44:21;;;;;;;;;;;17.20;99.90;;;;;;5119621;28;19934;-88
2023/04/23 11:46:48;;;;;;;;;;;17.10;99.90;;;;;;5136749;27;19923;-87
2023/04/23 11:49:14;;;;;;;;;;;17.00;99.90;;;;;;5106110;27;19960;-88
2023/04/23 11:51:42;;;;;;;;;;;16.80;99.90;;;;;;5099057;27;19927;-90
2023/04/23 11:54:07;;;;;;;;;;;16.80;99.90;;;;;;5099475;27;20353;-89
2023/04/23 11:56:34;;;;;;;;;;;16.90;99.90;;;;;;5107212;27;19923;-89
2023/04/23 11:59:02;;;;;;;;;;;17.10;99.90;;;;;;5109727;27;19927;-89
2023/04/23 12:01:41;;;;;;;;;;;17.20;99.90;;;;;;5126573;27;19931;-88
2023/04/23 12:04:11;;;;;;;;;;;17.30;99.90;;;;;;5116375;27;19955;-88
2023/04/23 12:06:38;;;;;;;;;;;17.60;99.90;;;;;;5126231;27;19923;-88
2023/04/23 12:09:04;;;;;;;;;;;17.90;99.90;;;;;;5107637;27;20374;-89
2023/04/23 12:11:30;;;;;;;;;;;18.20;99.90;;;;;;5127748;27;19923;-88
2023/04/23 12:13:56;;;;;;;;;;;18.40;99.90;;;;;;5110888;28;19931;-88
2023/04/23 12:16:41;;;;;;;;;;;18.50;99.90;;;;;;5126558;27;20372;-89
2023/04/23 12:19:20;;;;;;;;;;;18.60;99.90;;;;;;5091033;28;19930;-88
2023/04/23 12:21:55;;;;;;;;;;;18.70;99.90;;;;;;5122866;28;19923;-89
2023/04/23 12:24:29;;;;;;;;;;;18.70;99.90;;;;;;5120449;27;19929;-88
2023/04/23 12:26:59;;;;;;;;;;;18.50;99.90;;;;;;5113877;27;19923;-88
2023/04/23 12:29:25;;;;;;;;;;;18.20;99.90;;;;;;5122236;27;19930;-89
2023/04/23 12:31:52;;;;;;;;;;;18.00;99.90;;;;;;5111158;27;19970;-87
2023/04/23 12:34:19;;;;;;;;;;;17.90;99.90;;;;;;5125492;27;19987;-88
2023/04/23 12:36:47;;;;;;;;;;;17.80;99.90;;;;;;5126692;27;19924;-88
2023/04/23 12:39:29;;;;;;;;;;;17.80;99.90;;;;;;5115578;28;20370;-88
2023/04/23 12:41:57;;;;;;;;;;;17.80;99.90;;;;;;5091307;27;19923;-88
2023/04/23 12:44:22;;;;;;;;;;;17.80;99.90;;;;;;5108113;27;19923;-88
2023/04/23 12:46:50;;;;;;;;;;;17.90;99.90;;;;;;5106574;27;20018;-88
2023/04/23 12:49:15;;;;;;;;;;;17.80;99.90;;;;;;5104847;27;19923;-88
2023/04/23 12:51:41;;;;;;;;;;;17.80;99.90;;;;;;5118969;28;19923;-88
2023/04/23 12:54:07;;;;;;;;;;;17.90;99.90;;;;;;5120525;27;19923;-88
2023/04/23 12:56:32;;;;;;;;;;;18.00;99.90;;;;;;5100125;27;20089;-89
2023/04/23 12:59:00;;;;;;;;;;;18.20;99.90;;;;;;5108445;27;19998;-89
2023/04/23 13:01:26;;;;;;;;;;;18.30;99.90;;;;;;5119823;27;20302;-89
2023/04/23 13:03:52;;;;;;;;;;;18.30;99.90;;;;;;5106089;28;19946;-88
2023/04/23 13:06:17;;;;;;;;;;;18.40;99.90;;;;;;5097513;27;19934;-88
2023/04/23 13:08:43;;;;;;;;;;;18.30;99.90;;;;;;5106036;27;19934;-88
2023/04/23 13:11:08;;;;;;;;;;;18.30;99.90;;;;;;5106591;27;19995;-88
2023/04/23 13:13:34;;;;;;;;;;;18.10;99.90;;;;;;5115171;27;19930;-89
2023/04/23 13:16:00;;;;;;;;;;;18.10;99.90;;;;;;5106714;27;20010;-89
2023/04/23 13:18:25;;;;;;;;;;;18.00;99.90;;;;;;5122051;27;19944;-88
2023/04/23 13:20:51;;;;;;;;;;;18.00;99.90;;;;;;5104946;27;19923;-89
2023/04/23 13:23:16;;;;;;;;;;;18.00;99.90;;;;;;5107648;27;19939;-88
2023/04/23 13:25:42;;;;;;;;;;;18.00;99.90;;;;;;5107590;27;20010;-88
2023/04/23 13:28:08;;;;;;;;;;;18.10;99.90;;;;;;5107591;27;19923;-89
2023/04/23 13:30:33;;;;;;;;;;;18.20;99.90;;;;;;5087811;27;20320;-88
2023/04/23 13:32:59;;;;;;;;;;;18.30;99.90;;;;;;5093686;28;19935;-88
2023/04/23 13:35:24;;;;;;;;;;;18.30;99.90;;;;;;5103526;27;19957;-88
2023/04/23 13:37:50;;;;;;;;;;;18.40;99.90;;;;;;5100082;27;19931;-90
2023/04/23 13:40:16;;;;;;;;;;;18.60;99.90;;;;;;5115455;28;19938;-88
2023/04/23 13:42:41;;;;;;;;;;;18.70;98.30;;;;;;5099781;27;19923;-88
2023/04/23 13:45:07;;;;;;;;;;;18.80;99.40;;;;;;5124084;27;20314;-87
2023/04/23 13:47:33;;;;;;;;;;;19.00;98.50;;;;;;5125008;27;19923;-90
2023/04/23 13:50:04;;;;;;;;;;;19.10;98.90;;;;;;5120742;28;19967;-92
2023/04/23 13:52:30;;;;;;;;;;;19.30;99.90;;;;;;5105284;27;19949;-92
2023/04/23 13:54:56;;;;;;;;;;;19.40;99.00;;;;;;5107646;27;19984;-91
2023/04/23 13:57:22;;;;;;;;;;;19.40;97.90;;;;;;5111962;27;19923;-93
2023/04/23 13:59:48;;;;;;;;;;;19.30;96.80;;;;;;5118217;28;19924;-91
2023/04/23 14:02:14;;;;;;;;;;;19.10;97.20;;;;;;5102639;27;19956;-91
2023/04/23 14:04:40;;;;;;;;;;;19.10;94.70;;;;;;5083330;28;19934;-92
2023/04/23 14:07:05;;;;;;;;;;;18.90;96.80;;;;;;5088418;27;19986;-91
2023/04/23 14:09:31;;;;;;;;;;;18.90;99.40;;;;;;5102225;27;19996;-91
2023/04/23 14:11:57;;;;;;;;;;;18.90;98.70;;;;;;5097749;27;19923;-93
2023/04/23 14:14:23;;;;;;;;;;;19.00;98.90;;;;;;5122108;27;19930;-93
2023/04/23 14:16:48;;;;;;;;;;;19.10;99.90;;;;;;5100753;27;19923;-92
2023/04/23 14:19:14;;;;;;;;;;;19.30;98.90;;;;;;5103890;27;19931;-91
2023/04/23 14:21:40;;;;;;;;;;;19.50;96.60;;;;;;5071887;27;19944;-92
2023/04/23 14:24:22;;;;;;;;;;;19.70;96.10;;;;;;5104498;27;19982;-92
2023/04/23 14:26:48;;;;;;;;;;;19.90;96.30;;;;;;5117886;27;19923;-92
2023/04/23 14:29:17;;;;;;;;;;;20.10;94.90;;;;;;5108076;28;19928;-93
2023/04/23 14:31:42;;;;;;;;;;;20.10;93.60;;;;;;5100619;28;19923;-94
2023/04/23 14:34:10;;;;;;;;;;;20.00;94.10;;;;;;5097106;28;19966;-92
2023/04/23 14:36:36;;;;;;;;;;;19.80;94.10;;;;;;5116776;27;19954;-93
2023/04/23 14:39:04;;;;;;;;;;;19.60;93.40;;;;;;5095753;28;19931;-91
2023/04/23 14:41:30;;;;;;;;;;;19.40;95.80;;;;;;5113084;28;19948;-91
2023/04/23 14:43:56;;;;;;;;;;;19.40;95.80;;;;;;5081272;28;19924;-92
2023/04/23 14:46:25;;;;;;;;;;;19.30;93.70;;;;;;5096929;28;19984;-92
2023/04/23 14:48:50;;;;;;;;;;;19.30;94.50;;;;;;5109262;28;20009;-90
2023/04/23 14:51:16;;;;;;;;;;;19.40;90.50;;;;;;5110477;28;19927;-90
2023/04/23 14:53:41;;;;;;;;;;;19.40;93.80;;;;;;5111879;28;19923;-92
2023/04/23 14:56:07;;;;;;;;;;;19.40;91.70;;;;;;5081691;28;19983;-93
2023/04/23 14:58:33;;;;;;;;;;;19.40;92.30;;;;;;5105387;28;19923;-91
2023/04/23 15:00:58;;;;;;;;;;;19.40;92.80;;;;;;5113160;28;19931;-92
2023/04/23 15:03:25;;;;;;;;;;;19.30;90.10;;;;;;5099818;28;19924;-93
2023/04/23 15:05:54;;;;;;;;;;;19.20;92.30;;;;;;5097336;28;19930;-91
2023/04/23 15:08:19;;;;;;;;;;;20.40;93.00;;;;;;5105380;28;19971;-93
2023/04/23 15:10:45;;;;;;;;;;;19.10;91.00;;;;;;5103751;28;19935;-91
2023/04/23 15:13:14;;;;;;;;;;;19.10;90.80;;;;;;5101882;28;19924;-93
2023/04/23 15:15:48;;;;;;;;;;;19.00;90.70;;;;;;5113192;28;19953;-92
2023/04/23 15:18:14;;;;;;;;;;;18.90;93.10;;;;;;5099423;28;19948;-91
2023/04/23 15:20:40;;;;;;;;;;;18.90;93.20;;;;;;5096890;28;19924;-91
2023/04/23 15:23:06;;;;;;;;;;;18.80;93.10;;;;;;5102471;28;20018;-92
2023/04/23 15:25:35;;;;;;;;;;;18.80;95.70;;;;;;5120500;28;19966;-92
2023/04/23 15:28:01;;;;;;;;;;;18.80;94.10;;;;;;5101094;28;19949;-91
2023/04/23 15:30:27;;;;;;;;;;;18.70;92.30;;;;;;5086640;28;19923;-91
2023/04/23 15:32:56;;;;;;;;;;;18.60;92.70;;;;;;5088228;28;19934;-92
2023/04/23 15:35:25;;;;;;;;;;;18.60;94.00;;;;;;5098156;28;19950;-92
2023/04/23 15:37:51;;;;;;;;;;;18.60;96.00;;;;;;5090292;28;20003;-93
2023/04/23 15:40:20;;;;;;;;;;;18.60;94.00;;;;;;5080579;28;19928;-92
2023/04/23 15:42:46;;;;;;;;;;;18.50;93.70;;;;;;5120568;28;19924;-93
2023/04/23 15:45:18;;;;;;;;;;;18.50;95.30;;;;;;5072295;28;19924;-88
2023/04/23 15:48:05;;;;;;;;;;;18.40;92.70;;;;;;5080523;28;19928;-87
2023/04/23 15:50:31;;;;;;;;;;;17.50;93.80;;;;;;5112056;28;19924;-88
2023/04/23 15:52:58;;;;;;;;;;;18.20;94.40;;;;;;5104886;28;19963;-88
2023/04/23 15:55:24;;;;;;;;;;;18.20;95.20;;;;;;5092300;28;19934;-88
2023/04/23 15:57:50;;;;;;;;;;;18.20;95.90;;;;;;5105126;28;19932;-87
2023/04/23 16:00:16;;;;;;;;;;;18.20;96.80;;;;;;5098838;28;19970;-87
2023/04/23 16:02:41;;;;;;;;;;;18.20;96.50;;;;;;5103350;28;19924;-89
2023/04/23 16:05:07;;;;;;;;;;;18.20;96.40;;;;;;5106475;28;19931;-88
2023/04/23 16:07:33;;;;;;;;;;;18.20;96.70;;;;;;5113511;28;19924;-87
2023/04/23 16:09:58;;;;;;;;;;;18.20;97.70;;;;;;5100947;28;19928;-89
2023/04/23 16:12:24;;;;;;;;;;;18.20;96.40;;;;;;5077825;28;19932;-87
2023/04/23 16:14:50;;;;;;;;;;;18.20;96.60;;;;;;5098986;28;19923;-89
2023/04/23 16:17:15;;;;;;;;;;;18.10;96.10;;;;;;5100892;28;19959;-86
2023/04/23 16:19:41;;;;;;;;;;;18.00;93.90;;;;;;5122555;28;20002;-89
2023/04/23 16:22:07;;;;;;;;;;;18.00;95.00;;;;;;5083542;28;19928;-87
2023/04/23 16:24:32;;;;;;;;;;;17.90;94.20;;;;;;5116228;28;19931;-87